Terminal Aerodrome Forecast
Issued by NWS

Home | Current Version | Previous Version | Text Only | Print | Product List | Glossary On
Versions: 1 2 3 4 5 6 7 8 9 10 11 12 13 14 15 16 17 18 19 20 21 22 23 24 25 26 27 28 29 30 31
000
FTUS46 KLOX 080533
TAFLAX
TAF
KLAX 080533Z 0806/0912 25008KT P6SM SCT015
     FM081000 VRB03KT P6SM SCT012 OVC025
     FM081400 12005KT 6SM -DZ BR BKN012 OVC025
     FM081700 25008KT P6SM SCT015 BKN030
     FM082000 25012KT P6SM FEW017 SCT035
     FM090400 25006KT P6SM BKN020
     FM091000 VRB03KT P6SM BKN025=

USA.gov is the U.S. government's official web portal to all federal, state and local government web resources and services.